Time;durP1;ratioP1;P1;durP2;ratioP2;P2;SDS_P1;SDS_P2;PMS_P1;PMS_P2;Temp;Humidity;BMP_temperature;BMP_pressure;BME280_temperature;BME280_humidity;BME280_pressure;Samples;Min_cycle;Max_cycle;Signal;HPM_P1;HPM_P2
2022/02/01 00:00:25;;;;;;;4.07;1.83;;;;;;;2.29;100.00;96665.09;5071019;28;20748;-71
2022/02/01 00:02:58;;;;;;;3.10;1.70;;;;;;;2.36;100.00;96664.22;5055278;28;20932;-71
2022/02/01 00:05:34;;;;;;;3.13;1.70;;;;;;;2.39;100.00;96661.28;5055002;28;20484;-71
2022/02/01 00:08:50;;;;;;;1.98;1.77;;;;;;;2.24;100.00;96675.16;5068011;28;20755;-71
2022/02/01 00:11:03;;;;;;;2.17;1.60;;;;;;;2.27;100.00;96696.31;5055963;28;20411;-71
2022/02/01 00:13:39;;;;;;;3.00;1.70;;;;;;;2.32;100.00;96691.41;5058782;28;20391;-71
2022/02/01 00:16:28;;;;;;;3.58;1.67;;;;;;;2.25;100.00;96689.69;5060881;28;20424;-71
2022/02/01 00:35:28;;;;;;;2.97;1.60;;;;;;;2.42;100.00;96733.34;5054812;28;20471;-71
2022/02/01 00:38:15;;;;;;;2.33;1.60;;;;;;;2.47;100.00;96727.63;5036691;28;20407;-71
2022/02/01 00:40:40;;;;;;;2.28;1.52;;;;;;;2.46;100.00;96746.69;5058430;28;20459;-74
2022/02/01 00:43:07;;;;;;;2.60;1.60;;;;;;;2.40;100.00;96745.63;5073849;28;20729;-71
2022/02/01 00:45:35;;;;;;;1.60;1.40;;;;;;;2.33;100.00;96742.16;5073804;28;20394;-71
2022/02/01 00:48:02;;;;;;;2.83;1.57;;;;;;;2.49;100.00;96752.34;5055781;28;20407;-72
2022/02/01 00:50:27;;;;;;;2.28;1.50;;;;;;;2.46;100.00;96757.06;5063007;28;20397;-71
2022/02/01 00:52:53;;;;;;;1.70;1.20;;;;;;;2.40;100.00;96743.03;5070365;28;20487;-71
2022/02/01 00:55:18;;;;;;;3.70;1.60;;;;;;;2.41;100.00;96752.41;5061500;28;20422;-71
2022/02/01 00:57:44;;;;;;;1.60;1.20;;;;;;;2.60;100.00;96765.81;5073460;28;20395;-71
2022/02/01 01:00:11;;;;;;;1.48;1.30;;;;;;;2.61;100.00;96775.19;5073812;28;20387;-71
2022/02/01 01:02:37;;;;;;;1.23;1.13;;;;;;;2.33;100.00;96774.97;5056337;28;20450;-71
2022/02/01 01:05:04;;;;;;;1.73;1.40;;;;;;;2.18;100.00;96774.09;5053808;28;20750;-71
2022/02/01 01:07:30;;;;;;;2.93;1.70;;;;;;;2.16;100.00;96781.25;5053654;28;20412;-71
2022/02/01 01:09:57;;;;;;;2.00;1.60;;;;;;;1.92;100.00;96780.44;5053304;28;20401;-74
2022/02/01 01:12:24;;;;;;;3.40;1.80;;;;;;;1.94;100.00;96794.03;5043136;28;20397;-71
2022/02/01 01:44:47;;;;;;;4.85;2.08;;;;;;;1.96;100.00;96771.38;5069789;28;20942;-71
2022/02/01 01:55:35;;;;;;;4.57;1.90;;;;;;;2.19;100.00;96786.06;5053127;28;20403;-70
2022/02/01 01:58:03;;;;;;;4.15;1.90;;;;;;;2.11;100.00;96789.53;5052956;28;20817;-70
2022/02/01 02:00:51;;;;;;;4.32;1.80;;;;;;;2.01;100.00;96779.41;5053261;28;20842;-71
2022/02/01 02:03:17;;;;;;;7.22;2.42;;;;;;;2.14;100.00;96803.88;5072604;28;20392;-71
2022/02/01 02:05:42;;;;;;;5.75;2.05;;;;;;;2.23;100.00;96798.47;5071865;28;20426;-71
2022/02/01 02:08:08;;;;;;;5.90;2.40;;;;;;;2.12;100.00;96808.44;5066693;28;20389;-70
2022/02/01 02:10:39;;;;;;;5.73;2.10;;;;;;;2.08;100.00;96823.47;5052797;28;20738;-71
2022/02/01 02:15:59;;;;;;;5.35;2.25;;;;;;;1.92;100.00;96826.97;5054524;28;20399;-71
2022/02/01 02:18:27;;;;;;;4.90;1.83;;;;;;;1.93;100.00;96838.13;5053810;28;20419;-71
2022/02/01 02:20:53;;;;;;;6.32;2.30;;;;;;;1.86;100.00;96819.09;5072451;28;20865;-71
2022/02/01 02:23:20;;;;;;;4.85;2.15;;;;;;;1.80;100.00;96820.56;5071928;28;20394;-71
2022/02/01 02:25:46;;;;;;;4.70;2.05;;;;;;;1.92;100.00;96815.81;5070618;28;20769;-71
2022/02/01 02:28:14;;;;;;;6.32;2.30;;;;;;;1.79;100.00;96836.25;5065484;28;20397;-71
2022/02/01 02:30:40;;;;;;;6.03;2.30;;;;;;;1.93;100.00;96844.09;5051877;28;20393;-71
2022/02/01 02:33:12;;;;;;;6.72;2.38;;;;;;;1.87;100.00;96855.09;5052404;28;20382;-71
2022/02/01 02:35:48;;;;;;;6.30;2.57;;;;;;;1.94;100.00;96871.53;5070134;28;20448;-71
2022/02/01 02:38:19;;;;;;;8.73;2.45;;;;;;;1.89;100.00;96863.50;5064728;28;20409;-71
2022/02/01 02:45:53;;;;;;;6.43;2.67;;;;;;;1.80;100.00;96881.78;5051268;28;20380;-71
2022/02/01 02:48:19;;;;;;;6.80;2.57;;;;;;;1.70;100.00;96882.00;5059062;28;20460;-71
2022/02/01 02:50:45;;;;;;;6.70;2.13;;;;;;;1.80;100.00;96885.16;5057799;28;20431;-71
2022/02/01 02:53:10;;;;;;;8.23;2.70;;;;;;;1.68;100.00;96877.00;5051280;28;20866;-71
2022/02/01 02:55:35;;;;;;;8.60;2.47;;;;;;;1.75;100.00;96894.41;5051028;28;20381;-71
2022/02/01 02:58:01;;;;;;;8.30;2.38;;;;;;;1.81;100.00;96899.72;5055785;28;20439;-71
2022/02/01 03:00:26;;;;;;;7.57;2.87;;;;;;;1.81;100.00;96897.13;5060959;28;20393;-71
2022/02/01 03:02:52;;;;;;;6.70;2.50;;;;;;;1.86;100.00;96904.38;5053227;28;20396;-71
2022/02/01 03:05:18;;;;;;;8.70;3.10;;;;;;;1.68;100.00;96907.19;5050770;28;20862;-73
2022/02/01 03:07:43;;;;;;;10.45;2.80;;;;;;;1.55;100.00;96910.31;5050747;28;20401;-70
2022/02/01 03:10:08;;;;;;;7.90;2.60;;;;;;;1.76;100.00;96898.59;5046932;28;20529;-70
2022/02/01 03:13:06;;;;;;;11.20;3.30;;;;;;;1.71;100.00;96881.03;5052408;28;20408;-71
2022/02/01 03:15:36;;;;;;;7.78;2.40;;;;;;;1.72;100.00;96892.97;5049937;28;20859;-70
2022/02/01 03:20:46;;;;;;;11.80;2.83;;;;;;;1.87;100.00;96905.97;5069976;28;20448;-70
2022/02/01 03:23:11;;;;;;;11.60;2.53;;;;;;;1.71;100.00;96912.03;5070112;28;20463;-71
2022/02/01 03:25:36;;;;;;;13.40;2.83;;;;;;;1.70;100.00;96905.25;5068551;28;20522;-70
2022/02/01 03:28:02;;;;;;;8.60;2.50;;;;;;;1.69;100.00;96903.63;5049445;28;20408;-71
2022/02/01 03:30:27;;;;;;;10.40;2.70;;;;;;;1.78;100.00;96899.25;5052529;28;20780;-71
2022/02/01 03:32:53;;;;;;;10.20;2.37;;;;;;;1.82;100.00;96900.50;5069799;28;20402;-71
2022/02/01 03:35:18;;;;;;;8.45;2.80;;;;;;;1.81;100.00;96916.97;5069804;28;20478;-71
2022/02/01 03:37:44;;;;;;;8.25;2.75;;;;;;;1.80;100.00;96923.94;5069254;28;20875;-71
2022/02/01 03:40:14;;;;;;;8.43;2.47;;;;;;;1.60;100.00;96925.31;5010999;28;1125117;-71
2022/02/01 03:42:40;;;;;;;12.53;3.37;;;;;;;1.59;100.00;96921.91;5070657;28;20476;-71
2022/02/01 03:45:06;;;;;;;16.53;2.87;;;;;;;1.48;100.00;96931.81;5056472;28;20497;-71
2022/02/01 03:47:32;;;;;;;11.60;2.75;;;;;;;1.44;100.00;96933.13;5051247;28;20394;-71
2022/02/01 03:49:59;;;;;;;11.05;2.67;;;;;;;1.67;100.00;96939.97;5051340;28;20425;-70
2022/02/01 03:52:25;;;;;;;10.95;2.72;;;;;;;1.65;100.00;96929.00;5059451;28;20486;-70
2022/02/01 03:54:50;;;;;;;11.65;2.55;;;;;;;1.68;100.00;96943.34;5071357;28;20396;-70
2022/02/01 03:57:16;;;;;;;10.05;2.65;;;;;;;1.59;100.00;96939.19;5052976;28;20400;-70
2022/02/01 03:59:44;;;;;;;9.93;2.45;;;;;;;1.66;100.00;96934.97;5032905;28;20405;-71
2022/02/01 04:02:10;;;;;;;13.15;2.83;;;;;;;1.72;100.00;96930.91;5051089;28;20408;-71
2022/02/01 04:04:36;;;;;;;9.82;2.40;;;;;;;1.73;100.00;96938.47;5070496;28;20383;-70
2022/02/01 04:07:05;;;;;;;8.82;2.50;;;;;;;1.81;100.00;96935.88;5064024;28;20390;-70
2022/02/01 04:09:31;;;;;;;12.80;2.97;;;;;;;1.66;100.00;96950.47;5060522;28;20863;-71
2022/02/01 04:11:59;;;;;;;12.50;2.42;;;;;;;1.86;100.00;96962.03;5038247;28;20767;-71
2022/02/01 04:14:28;;;;;;;8.68;2.35;;;;;;;1.83;100.00;96975.28;5050176;28;20488;-70
2022/02/01 04:16:55;;;;;;;6.90;2.45;;;;;;;1.97;100.00;96981.50;5055554;28;20993;-73
2022/02/01 04:19:21;;;;;;;6.72;2.63;;;;;;;1.85;100.00;96988.03;5054030;28;20461;-73
2022/02/01 04:21:57;;;;;;;8.88;2.50;;;;;;;1.74;100.00;96993.53;5053664;28;20485;-70
2022/02/01 04:24:22;;;;;;;10.52;2.63;;;;;;;1.81;99.91;96994.50;5056236;28;20397;-72
2022/02/01 04:26:47;;;;;;;9.75;2.30;;;;;;;1.91;99.91;97001.09;5050546;28;20878;-71
2022/02/01 04:29:13;;;;;;;7.63;2.30;;;;;;;1.91;99.24;97000.28;5050735;28;20401;-71
2022/02/01 04:31:38;;;;;;;6.25;2.33;;;;;;;1.76;98.21;97004.53;5060659;28;20383;-71
2022/02/01 04:34:03;;;;;;;9.33;2.30;;;;;;;1.86;98.42;97011.13;5056573;28;20394;-71
2022/02/01 04:36:29;;;;;;;7.90;2.20;;;;;;;1.81;94.08;97015.16;5050736;28;20496;-71
2022/02/01 04:38:57;;;;;;;9.23;2.17;;;;;;;1.83;95.43;97008.88;5033905;28;20441;-73
2022/02/01 04:41:27;;;;;;;10.70;2.60;;;;;;;1.84;97.15;97023.38;5054634;28;20673;-71
2022/02/01 04:43:53;;;;;;;11.18;2.60;;;;;;;1.87;98.50;97023.06;5067074;28;20453;-71
2022/02/01 04:46:20;;;;;;;13.82;2.38;;;;;;;1.78;99.14;97011.16;5055713;28;20404;-71
2022/02/01 04:48:47;;;;;;;10.55;2.58;;;;;;;1.59;100.00;97014.09;5054187;28;20463;-71
2022/02/01 04:51:16;;;;;;;10.25;2.40;;;;;;;1.90;100.00;97014.97;5037220;28;20416;-71
2022/02/01 04:53:43;;;;;;;9.85;2.40;;;;;;;1.63;100.00;97023.94;5055609;28;20407;-71
2022/02/01 04:56:08;;;;;;;9.38;2.58;;;;;;;1.65;100.00;97032.34;5073583;28;20957;-70
2022/02/01 04:58:33;;;;;;;8.40;2.00;;;;;;;1.62;100.00;97040.41;5073336;28;20412;-72
2022/02/01 05:01:00;;;;;;;9.20;2.20;;;;;;;1.75;100.00;97036.50;5072987;28;20475;-71
2022/02/01 05:03:25;;;;;;;10.98;2.30;;;;;;;1.81;100.00;97041.81;5073127;28;20471;-71
2022/02/01 05:05:51;;;;;;;11.63;2.33;;;;;;;1.65;100.00;97029.75;5069914;28;20810;-71
2022/02/01 05:08:16;;;;;;;10.27;2.13;;;;;;;1.82;99.08;97043.44;5053643;28;20776;-70
2022/02/01 05:10:42;;;;;;;9.88;2.42;;;;;;;1.89;97.22;97048.75;5053779;28;20488;-70
2022/02/01 05:16:00;;;;;;;9.07;2.45;;;;;;;1.79;96.15;97050.69;5073417;28;20400;-70
2022/02/01 05:18:28;;;;;;;10.45;2.42;;;;;;;1.83;95.10;97062.34;5062255;28;20421;-71
2022/02/01 05:21:02;;;;;;;12.93;2.47;;;;;;;1.82;94.86;97058.94;5053267;28;20877;-71
2022/02/01 05:23:27;;;;;;;11.23;2.40;;;;;;;1.96;94.10;97057.44;5053569;28;20401;-71
2022/02/01 05:25:53;;;;;;;9.70;2.40;;;;;;;1.86;94.07;97065.38;5053074;28;20395;-71
2022/02/01 05:28:19;;;;;;;10.30;2.30;;;;;;;2.02;93.82;97080.03;5053648;28;20471;-70
2022/02/01 05:30:44;;;;;;;8.57;1.90;;;;;;;1.92;93.05;97085.41;5053215;28;20389;-71
2022/02/01 05:33:10;;;;;;;7.47;2.20;;;;;;;1.91;92.18;97098.47;5068990;28;20417;-72
2022/02/01 05:35:35;;;;;;;8.93;2.15;;;;;;;1.84;90.77;97103.50;5072407;28;20384;-70
2022/02/01 05:38:01;;;;;;;10.57;2.40;;;;;;;1.80;91.99;97104.00;5065988;28;20419;-71
2022/02/01 05:40:27;;;;;;;10.30;2.30;;;;;;;1.78;91.82;97104.19;5034842;28;20421;-71
2022/02/01 05:43:11;;;;;;;12.03;2.53;;;;;;;1.90;91.64;97107.19;5066431;28;20395;-70
2022/02/01 05:45:37;;;;;;;9.98;2.15;;;;;;;1.81;91.14;97109.00;5065481;28;20392;-71
2022/02/01 05:48:03;;;;;;;10.43;2.45;;;;;;;1.75;91.35;97101.09;5059080;28;20719;-71
2022/02/01 05:50:30;;;;;;;12.43;2.38;;;;;;;1.72;90.77;97104.00;5051916;28;20397;-72
2022/02/01 05:52:57;;;;;;;7.43;2.10;;;;;;;1.90;90.18;97100.25;5052873;28;20425;-72
2022/02/01 05:55:23;;;;;;;7.57;2.28;;;;;;;2.01;89.98;97089.56;5035593;28;20895;-71
2022/02/01 05:57:49;;;;;;;12.93;2.42;;;;;;;1.99;89.22;97080.38;5061360;28;20389;-71
2022/02/01 06:00:17;;;;;;;10.40;2.10;;;;;;;1.80;88.88;97086.72;5052813;28;20386;-71
2022/02/01 06:02:43;;;;;;;9.43;2.60;;;;;;;1.96;88.48;97084.09;5065472;28;20441;-71
2022/02/01 06:05:08;;;;;;;10.80;2.78;;;;;;;1.88;88.60;97085.91;5069381;28;20848;-71
2022/02/01 06:07:34;;;;;;;9.50;2.20;;;;;;;1.95;89.49;97079.88;5052303;28;20428;-72
2022/02/01 06:09:59;;;;;;;10.98;2.40;;;;;;;1.90;90.02;97081.34;5053366;28;20401;-71
2022/02/01 06:12:24;;;;;;;10.30;2.37;;;;;;;1.85;88.41;97093.97;5052542;28;20547;-71
2022/02/01 06:14:50;;;;;;;9.83;2.47;;;;;;;1.91;88.81;97106.22;5056054;28;20522;-71
2022/02/01 06:17:15;;;;;;;10.07;2.53;;;;;;;2.02;88.25;97098.94;5053028;28;20388;-71
2022/02/01 06:19:41;;;;;;;9.60;2.40;;;;;;;2.13;88.23;97107.31;5071661;28;20416;-71
2022/02/01 06:22:06;;;;;;;9.60;2.35;;;;;;;1.92;88.84;97103.50;5071590;28;20752;-71
2022/02/01 06:24:33;;;;;;;8.87;2.27;;;;;;;2.04;88.83;97107.34;5055385;28;20527;-72
2022/02/01 06:26:58;;;;;;;10.03;2.67;;;;;;;1.84;88.36;97113.03;5034481;28;20400;-70
2022/02/01 06:29:24;;;;;;;9.93;2.60;;;;;;;1.88;89.11;97122.06;5052096;28;20398;-71
2022/02/01 06:31:49;;;;;;;9.17;2.30;;;;;;;1.92;87.82;97121.59;5052179;28;20639;-71
2022/02/01 06:34:14;;;;;;;9.87;2.40;;;;;;;2.10;88.01;97126.56;5053101;28;20393;-70
2022/02/01 06:36:40;;;;;;;8.97;2.30;;;;;;;2.06;86.40;97123.47;5052946;28;20424;-71
2022/02/01 06:39:10;;;;;;;11.32;2.53;;;;;;;2.03;86.85;97125.59;5051380;28;20409;-71
2022/02/01 06:41:36;;;;;;;11.10;2.60;;;;;;;2.10;87.30;97134.31;5052196;28;20393;-70
2022/02/01 06:44:04;;;;;;;9.00;2.20;;;;;;;2.01;86.45;97138.69;5052089;28;20838;-70
2022/02/01 06:46:29;;;;;;;7.50;2.22;;;;;;;2.12;86.36;97142.69;5052277;28;20408;-70
2022/02/01 06:48:55;;;;;;;13.53;2.67;;;;;;;1.95;86.24;97144.50;5021673;28;20399;-70
2022/02/01 06:51:20;;;;;;;10.18;2.50;;;;;;;1.92;87.36;97154.38;5055131;28;20401;-70
2022/02/01 06:53:46;;;;;;;10.05;2.55;;;;;;;1.93;86.87;97151.63;5051567;28;20424;-69
2022/02/01 06:56:28;;;;;;;9.27;2.40;;;;;;;1.93;87.35;97168.91;5053770;28;20389;-69
2022/02/01 06:58:57;;;;;;;11.50;2.33;;;;;;;2.05;87.01;97163.25;5051743;28;20883;-69
2022/02/01 07:01:24;;;;;;;8.73;2.55;;;;;;;2.11;90.19;97163.56;5067104;28;20392;-70
2022/02/01 07:03:50;;;;;;;9.93;2.40;;;;;;;2.08;85.32;97167.28;5070092;28;20461;-70
2022/02/01 07:06:16;;;;;;;12.07;2.30;;;;;;;2.13;85.06;97169.34;5071609;28;20387;-69
2022/02/01 07:08:44;;;;;;;8.73;2.28;;;;;;;2.15;84.00;97201.03;5070902;28;20885;-69
2022/02/01 07:11:10;;;;;;;7.50;2.50;;;;;;;2.07;83.75;97202.66;5070966;28;20400;-70
2022/02/01 07:13:36;;;;;;;8.45;2.40;;;;;;;2.04;84.74;97210.75;5053934;28;20923;-69
2022/02/01 07:16:01;;;;;;;11.23;2.47;;;;;;;2.06;84.48;97202.84;5054746;28;20387;-69
2022/02/01 07:18:27;;;;;;;9.40;2.50;;;;;;;2.22;84.23;97223.50;5058236;28;20458;-68
2022/02/01 07:20:52;;;;;;;7.82;2.17;;;;;;;2.22;83.66;97222.69;5050511;28;20405;-71
2022/02/01 07:23:22;;;;;;;9.67;2.20;;;;;;;2.04;83.62;97208.16;5051331;28;20431;-70
2022/02/01 07:25:48;;;;;;;8.45;2.10;;;;;;;2.17;83.94;97192.16;5052178;28;20389;-70
2022/02/01 07:28:16;;;;;;;11.07;2.15;;;;;;;2.18;84.87;97198.13;5064847;28;20752;-71
2022/02/01 07:30:42;;;;;;;8.57;2.08;;;;;;;2.25;83.03;97196.50;5051482;28;20476;-71
2022/02/01 07:33:09;;;;;;;7.00;2.30;;;;;;;2.15;82.95;97201.03;5051476;28;20390;-70
2022/02/01 07:35:36;;;;;;;10.55;2.40;;;;;;;2.20;83.02;97193.59;5033405;28;20398;-70
2022/02/01 07:38:02;;;;;;;7.43;1.73;;;;;;;2.13;83.07;97208.13;5067794;28;20416;-70
2022/02/01 07:40:28;;;;;;;8.53;2.07;;;;;;;2.25;83.35;97197.31;5065828;28;20409;-71
2022/02/01 07:42:54;;;;;;;9.68;2.83;;;;;;;1.96;84.16;97191.84;5051332;28;20900;-77
2022/02/01 07:45:23;;;;;;;10.65;2.10;;;;;;;2.47;84.64;97188.84;5065597;28;20780;-76
2022/02/01 07:47:49;;;;;;;11.93;2.90;;;;;;;2.72;81.85;97184.41;5069045;28;20423;-71
2022/02/01 07:50:14;;;;;;;8.43;2.27;;;;;;;2.69;81.13;97197.69;5060685;28;20415;-72
2022/02/01 07:52:39;;;;;;;7.27;2.00;;;;;;;2.77;81.50;97204.63;5070892;28;20927;-72
2022/02/01 07:55:06;;;;;;;6.85;2.08;;;;;;;2.56;80.69;97196.59;5054223;28;20384;-69
2022/02/01 07:57:31;;;;;;;8.13;2.40;;;;;;;2.51;81.08;97187.53;5058330;28;20792;-70
2022/02/01 07:59:56;;;;;;;8.32;2.15;;;;;;;2.60;80.22;97187.53;5065794;28;20411;-71
2022/02/01 08:02:24;;;;;;;8.80;2.00;;;;;;;2.82;79.96;97192.78;5053916;28;20397;-72
2022/02/01 08:04:53;;;;;;;9.80;1.90;;;;;;;2.55;80.89;97184.63;5069099;28;20403;-71
2022/02/01 08:07:20;;;;;;;9.55;2.33;;;;;;;2.73;79.82;97174.88;5048287;28;20411;-72
2022/02/01 08:09:50;;;;;;;8.32;1.85;;;;;;;2.71;79.40;97180.22;5052245;28;20405;-71
2022/02/01 08:17:30;;;;;;;7.75;2.30;;;;;;;2.85;78.73;97189.03;5060321;28;20818;-71
2022/02/01 08:20:08;;;;;;;6.53;1.90;;;;;;;2.82;79.93;97174.66;5043269;28;21081;-71
2022/02/01 08:25:02;;;;;;;7.05;2.17;;;;;;;2.96;78.42;97170.53;5059367;28;20393;-70
2022/02/01 08:27:28;;;;;;;6.53;1.85;;;;;;;3.06;77.87;97183.31;5055412;28;20929;-71
2022/02/01 08:29:54;;;;;;;7.50;2.42;;;;;;;2.95;78.84;97184.50;5041391;28;20424;-71
2022/02/01 08:32:19;;;;;;;9.43;2.67;;;;;;;3.08;77.97;97182.13;5061433;28;20399;-71
2022/02/01 08:34:45;;;;;;;5.83;2.07;;;;;;;3.06;78.04;97189.28;5072516;28;20383;-70
2022/02/01 08:37:11;;;;;;;7.05;2.20;;;;;;;3.30;77.51;97190.91;5071986;28;20411;-70
2022/02/01 08:39:37;;;;;;;7.18;2.20;;;;;;;3.19;77.58;97206.84;5073430;28;20502;-70
2022/02/01 08:42:03;;;;;;;4.60;1.80;;;;;;;3.15;77.22;97208.97;5070743;28;20553;-71
2022/02/01 08:44:29;;;;;;;4.88;2.00;;;;;;;3.09;78.33;97208.84;5064917;28;21070;-70
2022/02/01 08:46:57;;;;;;;8.52;1.98;;;;;;;3.04;79.08;97214.53;5062666;28;20384;-71
2022/02/01 08:49:23;;;;;;;8.30;2.20;;;;;;;3.30;78.37;97219.41;5049509;28;20411;-70
2022/02/01 08:51:58;;;;;;;10.13;2.35;;;;;;;3.37;77.68;97209.19;5073312;28;20403;-70
2022/02/01 08:54:26;;;;;;;6.82;2.35;;;;;;;3.16;77.90;97208.00;5068555;28;20397;-70
2022/02/01 08:59:37;;;;;;;6.78;2.25;;;;;;;3.09;78.63;97212.25;5073050;28;20521;-70
2022/02/01 09:02:03;;;;;;;5.93;1.80;;;;;;;3.38;77.76;97223.75;5059211;28;20393;-70
2022/02/01 09:04:29;;;;;;;9.23;2.20;;;;;;;3.52;76.91;97208.28;5062628;28;20411;-70
2022/02/01 09:06:55;;;;;;;8.32;2.30;;;;;;;3.67;77.04;97203.19;5071676;28;20380;-70
2022/02/01 09:09:20;;;;;;;7.68;2.38;;;;;;;3.64;76.87;97193.94;5058068;28;20412;-70
2022/02/01 09:11:48;;;;;;;7.40;2.40;;;;;;;3.56;78.13;97201.78;5060305;28;20563;-71
2022/02/01 09:14:14;;;;;;;6.38;1.80;;;;;;;3.57;75.96;97205.97;5071527;28;20388;-70
2022/02/01 09:16:39;;;;;;;6.63;2.13;;;;;;;3.94;75.59;97209.59;5073313;28;20387;-70
2022/02/01 09:19:05;;;;;;;5.77;1.90;;;;;;;4.21;75.61;97203.06;5057309;28;20429;-71
2022/02/01 09:21:30;;;;;;;6.00;1.90;;;;;;;3.97;75.05;97198.88;5067849;28;20394;-70
2022/02/01 09:23:56;;;;;;;4.23;1.80;;;;;;;3.87;75.53;97206.91;5053305;28;20393;-71
2022/02/01 09:26:21;;;;;;;7.20;1.80;;;;;;;3.84;75.45;97201.28;5053048;28;20450;-71
2022/02/01 09:28:49;;;;;;;5.37;1.87;;;;;;;4.03;75.98;97193.81;5038636;28;20417;-70
2022/02/01 09:31:15;;;;;;;5.50;1.80;;;;;;;3.65;75.70;97203.34;5053023;28;20851;-70
2022/02/01 09:33:40;;;;;;;6.37;2.13;;;;;;;3.82;77.03;97204.03;5054014;28;20428;-70
2022/02/01 09:36:07;;;;;;;5.57;1.73;;;;;;;3.72;76.71;97200.88;5053392;28;20389;-70
2022/02/01 09:38:34;;;;;;;4.40;1.92;;;;;;;4.01;76.21;97195.75;5052949;28;20424;-71
2022/02/01 09:41:01;;;;;;;6.35;1.98;;;;;;;4.09;75.58;97200.88;5055602;28;20404;-71
2022/02/01 09:43:27;;;;;;;5.65;1.80;;;;;;;4.15;75.83;97192.41;5043692;28;20408;-71
2022/02/01 09:45:56;;;;;;;3.53;1.70;;;;;;;4.15;75.28;97189.81;5054350;28;20389;-70
2022/02/01 09:48:22;;;;;;;6.85;2.70;;;;;;;4.31;75.32;97167.28;5050214;28;20490;-70
2022/02/01 09:50:49;;;;;;;9.07;2.65;;;;;;;4.18;74.70;97181.66;5068527;28;20440;-70
2022/02/01 09:53:14;;;;;;;9.70;3.20;;;;;;;4.16;75.34;97177.66;5048093;28;20397;-71
2022/02/01 09:55:40;;;;;;;7.03;2.63;;;;;;;4.04;75.67;97184.25;5059609;28;20529;-71
2022/02/01 09:58:05;;;;;;;14.52;4.07;;;;;;;4.38;75.71;97179.38;5070907;28;20815;-70
2022/02/01 10:00:34;;;;;;;6.27;1.87;;;;;;;4.35;74.40;97176.31;5071830;28;20388;-71
2022/02/01 10:03:00;;;;;;;9.95;2.90;;;;;;;4.39;74.21;97173.22;5068909;28;20980;-70
2022/02/01 10:05:25;;;;;;;4.05;1.52;;;;;;;4.39;76.55;97178.41;5056369;28;20406;-71
2022/02/01 10:07:56;;;;;;;5.45;1.98;;;;;;;4.16;76.40;97190.63;5045771;28;20462;-71
2022/02/01 10:10:27;;;;;;;3.72;1.60;;;;;;;4.44;74.34;97196.84;5072212;28;20392;-70
2022/02/01 10:13:12;;;;;;;5.63;1.77;;;;;;;4.53;75.71;97181.97;5063226;28;20391;-70
2022/02/01 10:15:38;;;;;;;6.07;1.90;;;;;;;4.36;73.61;97189.13;5065430;28;20895;-70
2022/02/01 10:18:04;;;;;;;4.90;1.40;;;;;;;4.24;73.78;97174.97;5068492;28;20505;-71
2022/02/01 10:20:35;;;;;;;3.57;1.40;;;;;;;4.49;74.50;97175.53;5052502;28;20397;-70
2022/02/01 10:23:15;;;;;;;5.72;1.48;;;;;;;4.65;73.93;97169.34;5061737;28;20396;-71
2022/02/01 10:25:41;;;;;;;2.55;1.20;;;;;;;4.70;73.03;97167.81;5059871;28;20416;-70
2022/02/01 10:28:12;;;;;;;4.27;1.53;;;;;;;4.77;73.21;97162.72;5053862;28;20397;-70
2022/02/01 10:30:44;;;;;;;3.22;1.63;;;;;;;4.79;73.02;97165.97;5053454;28;20391;-70
2022/02/01 10:33:42;;;;;;;3.77;1.50;;;;;;;4.65;72.95;97174.53;5071167;28;20395;-70
2022/02/01 10:36:04;;;;;;;4.22;1.55;;;;;;;4.68;72.97;97177.56;5064057;28;20411;-71
2022/02/01 10:38:32;;;;;;;3.67;1.47;;;;;;;5.01;72.13;97157.25;5051997;28;20415;-70
2022/02/01 10:40:58;;;;;;;3.55;1.48;;;;;;;4.76;72.39;97166.31;5071534;28;20896;-70
2022/02/01 10:43:29;;;;;;;5.25;1.50;;;;;;;4.55;72.65;97161.84;5070018;28;20431;-70
2022/02/01 10:46:16;;;;;;;2.40;1.48;;;;;;;4.47;72.73;97165.31;5065889;28;20397;-71
2022/02/01 10:48:46;;;;;;;4.50;1.40;;;;;;;4.51;72.87;97166.56;5063108;28;20900;-70
2022/02/01 10:51:16;;;;;;;3.03;1.33;;;;;;;4.57;72.86;97163.25;5062448;28;20913;-71
2022/02/01 10:53:43;;;;;;;4.00;1.53;;;;;;;4.75;71.06;97162.09;5068028;28;20439;-70
2022/02/01 10:56:14;;;;;;;2.72;1.30;;;;;;;4.43;72.43;97156.28;5063355;28;20408;-70
2022/02/01 10:58:41;;;;;;;4.30;1.67;;;;;;;4.33;72.73;97150.56;5045758;28;20874;-71
2022/02/01 11:01:07;;;;;;;4.55;1.65;;;;;;;4.66;71.77;97142.41;5052498;28;20416;-70
2022/02/01 11:03:34;;;;;;;3.45;1.40;;;;;;;4.53;72.11;97141.25;5054434;28;20862;-70
2022/02/01 11:06:01;;;;;;;5.57;1.40;;;;;;;4.76;71.60;97140.34;5067495;28;20410;-70
2022/02/01 11:08:30;;;;;;;3.05;1.50;;;;;;;4.66;71.90;97127.66;5056932;28;20404;-70
2022/02/01 11:10:59;;;;;;;5.50;1.88;;;;;;;5.00;70.07;97112.28;5058561;28;20525;-70
2022/02/01 11:13:39;;;;;;;3.78;1.60;;;;;;;4.68;71.16;97091.91;5070222;28;20725;-71
2022/02/01 11:16:07;;;;;;;3.28;1.40;;;;;;;4.74;70.03;97093.78;5051559;28;20918;-70
2022/02/01 11:18:33;;;;;;;3.55;1.38;;;;;;;4.92;69.37;97089.00;5052002;28;20503;-70
2022/02/01 11:21:01;;;;;;;3.88;1.50;;;;;;;5.10;68.00;97067.00;5066055;28;20410;-69
2022/02/01 11:23:34;;;;;;;4.32;1.60;;;;;;;4.91;68.98;97058.00;5061807;28;20416;-69
2022/02/01 11:26:08;;;;;;;3.75;1.40;;;;;;;4.49;69.20;97051.75;5063737;28;20744;-69
2022/02/01 11:31:28;;;;;;;5.07;1.40;;;;;;;5.01;68.45;97029.97;5029725;28;20388;-69
2022/02/01 11:33:53;;;;;;;4.72;1.73;;;;;;;4.60;68.70;97020.16;5051415;28;20484;-73
2022/02/01 11:36:19;;;;;;;3.45;1.60;;;;;;;4.90;68.49;97020.06;5051393;28;20930;-69
2022/02/01 11:38:52;;;;;;;5.43;1.70;;;;;;;4.68;68.14;97018.44;5052198;28;20413;-69
2022/02/01 11:41:30;;;;;;;4.70;1.55;;;;;;;4.54;69.12;97014.88;5019063;28;20440;-69
2022/02/01 11:44:06;;;;;;;4.20;1.60;;;;;;;4.45;69.66;97019.38;5023691;28;20402;-69
2022/02/01 11:46:32;;;;;;;5.33;1.87;;;;;;;4.40;70.35;97021.69;5013955;28;20459;-70
2022/02/01 11:48:58;;;;;;;2.83;1.47;;;;;;;4.28;71.53;97020.56;5025925;28;20750;-70
2022/02/01 11:51:26;;;;;;;3.57;1.87;;;;;;;4.35;71.58;97011.06;5031628;28;21017;-70
2022/02/01 11:53:59;;;;;;;4.65;1.77;;;;;;;4.42;71.36;97011.16;5022350;28;20400;-70
2022/02/01 11:56:40;;;;;;;4.95;2.13;;;;;;;4.54;72.28;96996.72;5026097;28;20882;-68
2022/02/01 11:59:07;;;;;;;4.53;1.58;;;;;;;4.25;72.35;96994.97;5023031;28;20412;-72
2022/02/01 12:01:35;;;;;;;7.47;1.50;;;;;;;4.09;73.56;96993.41;5021380;28;20399;-70
2022/02/01 12:04:08;;;;;;;4.68;1.58;;;;;;;3.98;73.38;96991.25;5033190;28;20422;-70
2022/02/01 12:06:46;;;;;;;3.92;1.48;;;;;;;3.99;73.95;96982.50;5029060;28;20405;-70
2022/02/01 12:09:24;;;;;;;3.42;1.40;;;;;;;4.18;73.88;96973.34;5016753;28;20398;-70
2022/02/01 12:11:58;;;;;;;3.63;1.30;;;;;;;4.29;73.08;96946.94;5023220;28;20479;-70
2022/02/01 12:14:23;;;;;;;4.32;1.50;;;;;;;4.40;72.63;96936.06;5018950;28;20404;-71
2022/02/01 12:16:51;;;;;;;3.92;1.67;;;;;;;4.57;71.76;96934.84;5018843;28;20397;-75
2022/02/01 12:19:20;;;;;;;4.90;1.55;;;;;;;4.45;72.06;96920.78;5027155;28;20437;-70
2022/02/01 12:22:19;;;;;;;3.40;1.50;;;;;;;4.60;71.82;96916.31;5033707;28;20391;-72
2022/02/01 12:24:44;;;;;;;4.78;1.50;;;;;;;4.36;73.30;96940.03;5033448;28;20391;-70
2022/02/01 12:27:10;;;;;;;3.60;1.65;;;;;;;4.24;74.41;96925.13;5027971;28;20403;-70
2022/02/01 12:29:36;;;;;;;5.70;1.55;;;;;;;4.00;75.75;96921.06;5026546;28;20429;-70
2022/02/01 12:32:06;;;;;;;5.13;1.40;;;;;;;3.97;75.35;96916.25;5033253;28;20500;-71
2022/02/01 12:34:31;;;;;;;4.10;1.58;;;;;;;4.18;76.13;96918.88;5031584;28;20402;-70
2022/02/01 12:36:57;;;;;;;2.10;1.25;;;;;;;4.11;75.05;96907.63;5032216;28;20851;-70
2022/02/01 12:39:29;;;;;;;3.70;1.43;;;;;;;3.97;75.23;96898.09;5042208;28;20439;-70
2022/02/01 12:47:03;;;;;;;3.10;1.40;;;;;;;4.29;75.38;96871.69;5058045;28;20412;-70
2022/02/01 12:49:42;;;;;;;3.72;1.35;;;;;;;4.30;75.31;96856.94;5055864;28;20409;-72
2022/02/01 12:52:25;;;;;;;6.60;1.70;;;;;;;3.97;75.09;96848.81;5071702;28;20408;-70
2022/02/01 12:55:06;;;;;;;2.42;1.52;;;;;;;4.32;75.50;96840.22;5071644;28;20482;-70
2022/02/01 12:57:34;;;;;;;3.65;1.40;;;;;;;4.22;74.27;96841.50;5055752;28;20404;-70
2022/02/01 13:00:14;;;;;;;3.65;1.50;;;;;;;4.22;74.86;96828.53;5060893;28;20765;-72
2022/02/01 13:02:40;;;;;;;4.07;1.50;;;;;;;3.99;75.16;96818.34;5068305;28;20387;-70
2022/02/01 13:05:08;;;;;;;3.42;1.52;;;;;;;4.03;74.90;96824.75;5063206;28;20436;-71
2022/02/01 13:21:07;;;;;;;4.35;1.50;;;;;;;3.89;75.18;96773.78;5061464;28;20725;-69